Muir Beach, California
Current Conditions -  °F | °C
As of 10:56 AM on Monday 20 Oct 2014 (Local Time) from KSFO Reporting Station
Light Rain Light Rain  
Wind Chill: 64°   Ceiling: 1100
Heat Index: 64°   Visibility: 4mi
Dew Point: 60°   Wind: 14mph
Humidity: 87%   Direction: 300°WNW
Pressure: 29.98"   Gusts: 22mph
Location:  37.8489°N, 122.496°W
Report Text: KSFO 201756Z 30012G19KT 4SM R28R/4000VP6000FT -RA BR FEW001 BKN011 OVC027 18/16 A2998 RMK AO2 RAE12B48 SLP153 P0002 60003 T01780156 10200 20172 51022
Loading
Personal Weather Stations






























Interactive Weather Map
Tropical Storm Tracking
New forecast layout! Learn more

10-Day Weather Forecast

Advertisements
Track Severe Weather on mobile